createdAt,value
2022-09-29T00:02:39.652Z,4.13
2022-09-29T00:05:27.956Z,4.63
2022-09-29T00:08:13.964Z,3.83
2022-09-29T00:10:59.862Z,3.30
2022-09-29T00:13:49.456Z,3.88
2022-09-29T00:16:35.801Z,3.47
2022-09-29T00:19:21.726Z,3.70
2022-09-29T00:22:07.713Z,3.53
2022-09-29T00:24:53.529Z,3.60
2022-09-29T00:27:39.499Z,4.15
2022-09-29T00:30:25.593Z,4.07
2022-09-29T00:33:11.507Z,3.55
2022-09-29T00:36:05.889Z,3.65
2022-09-29T00:38:55.373Z,3.38
2022-09-29T00:41:42.349Z,3.45
2022-09-29T00:45:02.658Z,3.38
2022-09-29T00:48:11.615Z,4.13
2022-09-29T00:50:58.586Z,3.65
2022-09-29T00:53:49.371Z,4.25
2022-09-29T00:56:37.623Z,3.95
2022-09-29T00:59:39.158Z,3.88
2022-09-29T01:02:26.745Z,4.03
2022-09-29T01:05:25.683Z,4.75
2022-09-29T01:08:18.705Z,4.53
2022-09-29T01:11:05.715Z,3.53
2022-09-29T01:13:54.580Z,3.75
2022-09-29T01:16:48.306Z,3.80
2022-09-29T01:20:06.472Z,3.53
2022-09-29T01:23:11.299Z,2.90
2022-09-29T01:28:54.839Z,4.25
2022-09-29T01:31:53.447Z,4.20
2022-09-29T01:34:58.997Z,4.05
2022-09-29T01:38:14.925Z,4.60
2022-09-29T01:41:23.777Z,3.05
2022-09-29T01:44:19.273Z,4.30
2022-09-29T01:47:16.984Z,3.90
2022-09-29T01:50:13.198Z,4.05
2022-09-29T01:53:05.215Z,4.20
2022-09-29T01:55:55.892Z,4.20
2022-09-29T01:58:51.706Z,6.00
2022-09-29T02:01:43.567Z,4.50
2022-09-29T02:04:36.963Z,3.88
2022-09-29T02:07:36.345Z,3.80
2022-09-29T02:10:29.695Z,3.10
2022-09-29T02:13:18.286Z,3.50
2022-09-29T02:16:06.957Z,4.07
2022-09-29T02:19:02.706Z,4.00
2022-09-29T02:21:49.057Z,3.88
2022-09-29T02:24:36.754Z,3.47
2022-09-29T02:27:23.607Z,3.78
2022-09-29T02:30:10.967Z,3.70
2022-09-29T02:32:57.834Z,4.75
2022-09-29T02:36:10.767Z,3.60
2022-09-29T02:39:05.239Z,3.95
2022-09-29T02:42:23.268Z,3.88
2022-09-29T02:45:37.744Z,4.35
2022-09-29T02:48:42.710Z,4.28
2022-09-29T02:51:36.639Z,4.97
2022-09-29T02:54:47.323Z,3.72
2022-09-29T02:57:43.661Z,4.00
2022-09-29T03:00:31.819Z,4.03
2022-09-29T03:03:18.188Z,4.10
2022-09-29T03:06:03.960Z,4.43
2022-09-29T03:08:57.696Z,3.67
2022-09-29T03:11:44.060Z,4.43
2022-09-29T03:14:30.530Z,3.88
2022-09-29T03:17:16.285Z,4.07
2022-09-29T03:20:02.633Z,4.80
2022-09-29T03:22:48.514Z,4.55
2022-09-29T03:25:34.693Z,4.43
2022-09-29T03:28:20.724Z,4.32
2022-09-29T03:31:10.471Z,4.75
2022-09-29T03:33:56.598Z,4.18
2022-09-29T03:36:43.084Z,4.55
2022-09-29T03:39:29.641Z,4.13
2022-09-29T03:42:16.564Z,3.97
2022-09-29T03:45:02.955Z,4.15
2022-09-29T03:47:49.602Z,4.75
2022-09-29T03:50:39.430Z,4.35
2022-09-29T03:53:26.335Z,4.63
2022-09-29T03:56:12.677Z,4.07
2022-09-29T03:58:59.589Z,4.65
2022-09-29T04:01:45.631Z,4.95
2022-09-29T04:04:31.727Z,4.50
2022-09-29T04:07:18.023Z,4.53
2022-09-29T04:10:04.685Z,4.53
2022-09-29T04:12:51.247Z,4.70
2022-09-29T04:15:37.962Z,5.00
2022-09-29T04:18:24.267Z,4.72
2022-09-29T04:21:11.920Z,4.70
2022-09-29T04:23:58.008Z,4.72
2022-09-29T04:26:44.951Z,4.30
2022-09-29T04:29:30.842Z,4.93
2022-09-29T04:32:16.863Z,6.10
2022-09-29T04:35:03.136Z,4.63
2022-09-29T04:37:49.240Z,4.85
2022-09-29T04:40:36.472Z,4.53
2022-09-29T04:43:26.990Z,4.63
2022-09-29T04:46:13.998Z,5.57
2022-09-29T04:49:00.051Z,3.95
2022-09-29T04:51:46.527Z,4.68
2022-09-29T04:54:38.164Z,4.28
2022-09-29T04:57:24.522Z,4.60
2022-09-29T05:00:12.100Z,4.13
2022-09-29T05:02:58.517Z,4.15
2022-09-29T05:05:44.721Z,4.60
2022-09-29T05:08:30.601Z,3.72
2022-09-29T05:11:16.678Z,4.30
2022-09-29T05:14:02.729Z,5.15
2022-09-29T05:16:48.799Z,3.88
2022-09-29T05:19:34.791Z,4.30
2022-09-29T05:22:24.699Z,3.60
2022-09-29T05:25:11.460Z,4.55
2022-09-29T05:27:57.671Z,4.15
2022-09-29T05:30:43.750Z,5.05
2022-09-29T05:33:32.967Z,3.97
2022-09-29T05:36:19.029Z,4.00
2022-09-29T05:39:05.329Z,4.20
2022-09-29T05:41:51.168Z,3.55
2022-09-29T05:44:37.295Z,4.40
2022-09-29T05:47:24.272Z,4.97
2022-09-29T05:50:12.207Z,4.50
2022-09-29T05:53:03.272Z,4.97
2022-09-29T05:55:49.875Z,4.95
2022-09-29T05:58:37.654Z,4.68
2022-09-29T06:01:25.672Z,4.22
2022-09-29T06:04:11.895Z,4.50
2022-09-29T06:06:57.807Z,4.53
2022-09-29T06:09:43.715Z,4.82
2022-09-29T06:12:34.467Z,4.90
2022-09-29T06:15:20.660Z,4.68
2022-09-29T06:18:12.414Z,4.70
2022-09-29T06:21:13.260Z,4.47
2022-09-29T06:23:59.366Z,4.75
2022-09-29T06:26:45.445Z,5.13
2022-09-29T06:29:34.330Z,4.13
2022-09-29T06:32:20.288Z,4.25
2022-09-29T06:35:25.466Z,4.50
2022-09-29T06:38:11.657Z,4.70
2022-09-29T06:40:57.749Z,3.90
2022-09-29T06:43:43.792Z,4.03
2022-09-29T06:46:30.143Z,4.32
2022-09-29T06:49:16.721Z,4.97
2022-09-29T06:52:16.193Z,3.58
2022-09-29T06:55:05.823Z,3.92
2022-09-29T06:57:51.955Z,3.70
2022-09-29T07:00:38.282Z,4.00
2022-09-29T07:03:25.130Z,4.10
2022-09-29T07:06:19.731Z,4.57
2022-09-29T07:09:07.538Z,3.83
2022-09-29T07:11:53.431Z,3.22
2022-09-29T07:14:39.469Z,4.00
2022-09-29T07:17:25.614Z,4.60
2022-09-29T07:20:11.404Z,4.25
2022-09-29T07:22:57.928Z,4.57
2022-09-29T07:25:51.927Z,3.65
2022-09-29T07:28:38.679Z,3.58
2022-09-29T07:31:24.875Z,3.88
2022-09-29T07:34:11.055Z,3.60
2022-09-29T07:36:57.017Z,3.67
2022-09-29T07:39:42.902Z,3.83
2022-09-29T07:42:32.080Z,3.33
2022-09-29T07:45:18.088Z,3.10
2022-09-29T07:48:06.215Z,3.45
2022-09-29T07:50:52.796Z,4.00
2022-09-29T07:53:39.085Z,3.65
2022-09-29T07:56:25.071Z,3.50
2022-09-29T07:59:11.676Z,3.08
2022-09-29T08:01:58.446Z,3.15
2022-09-29T08:04:44.431Z,3.17
2022-09-29T08:07:31.254Z,3.72
2022-09-29T08:10:18.035Z,3.40
2022-09-29T08:13:04.092Z,3.50
2022-09-29T08:15:56.944Z,2.97
2022-09-29T08:18:43.469Z,3.42
2022-09-29T08:21:31.476Z,3.70
2022-09-29T08:24:22.529Z,3.63
2022-09-29T08:27:18.330Z,3.83
2022-09-29T08:30:06.183Z,3.63
2022-09-29T08:32:53.845Z,4.72
2022-09-29T08:35:40.807Z,4.32
2022-09-29T08:38:28.080Z,5.28
2022-09-29T08:41:36.490Z,4.80
2022-09-29T08:45:06.055Z,5.35
2022-09-29T08:48:20.706Z,4.82
2022-09-29T08:51:35.728Z,4.50
2022-09-29T08:54:50.507Z,5.88
2022-09-29T08:57:37.910Z,5.80
2022-09-29T09:00:38.805Z,4.50
2022-09-29T09:03:42.899Z,5.00
2022-09-29T09:06:52.234Z,4.50
2022-09-29T09:09:56.474Z,5.43
2022-09-29T09:13:02.343Z,5.07
2022-09-29T09:16:01.638Z,4.72
2022-09-29T09:19:11.286Z,5.07
2022-09-29T09:22:18.561Z,5.00
2022-09-29T09:25:18.320Z,5.40
2022-09-29T09:28:19.969Z,5.50
2022-09-29T09:31:18.428Z,5.40
2022-09-29T09:34:16.458Z,6.03
2022-09-29T09:37:10.628Z,5.57
2022-09-29T09:40:08.758Z,5.72
2022-09-29T09:43:06.601Z,5.57
2022-09-29T09:45:52.629Z,5.28
2022-09-29T09:49:01.911Z,5.65
2022-09-29T09:52:04.682Z,4.80
2022-09-29T09:54:55.652Z,5.28
2022-09-29T09:57:50.412Z,5.15
2022-09-29T10:00:44.860Z,4.32
2022-09-29T10:06:18.548Z,4.55
2022-09-29T10:09:05.018Z,5.50
2022-09-29T10:11:51.439Z,5.28
2022-09-29T10:14:53.165Z,5.60
2022-09-29T10:17:45.173Z,5.32
2022-09-29T10:20:36.999Z,6.35
2022-09-29T10:23:33.445Z,5.82
2022-09-29T10:26:25.942Z,5.47
2022-09-29T10:29:44.346Z,6.18
2022-09-29T10:32:37.871Z,4.85
2022-09-29T10:35:28.757Z,5.28
2022-09-29T10:38:25.671Z,4.35
2022-09-29T10:41:11.805Z,5.22
2022-09-29T10:44:20.794Z,4.93
2022-09-29T10:47:14.684Z,5.55
2022-09-29T10:50:16.360Z,4.95
2022-09-29T10:53:19.662Z,4.65
2022-09-29T10:56:17.819Z,5.20
2022-09-29T10:59:05.952Z,5.45
2022-09-29T11:01:59.780Z,4.88
2022-09-29T11:04:48.243Z,3.47
2022-09-29T11:07:44.758Z,1.85
2022-09-29T11:10:33.599Z,2.22
2022-09-29T11:13:20.145Z,2.25
2022-09-29T11:16:15.223Z,2.50
2022-09-29T11:19:08.449Z,2.25
2022-09-29T11:22:22.566Z,3.22
2022-09-29T11:25:38.370Z,3.03
2022-09-29T11:28:52.367Z,3.05
2022-09-29T11:31:49.864Z,3.17
2022-09-29T11:34:37.492Z,3.70
2022-09-29T11:38:08.303Z,3.80
2022-09-29T11:41:04.887Z,3.40
2022-09-29T11:44:07.182Z,3.28
2022-09-29T11:47:14.002Z,3.17
2022-09-29T11:50:23.541Z,2.90
2022-09-29T11:53:12.538Z,2.75
2022-09-29T11:56:17.410Z,2.50
2022-09-29T11:59:18.455Z,2.75
2022-09-29T12:02:29.657Z,3.25
2022-09-29T12:05:27.257Z,3.30
2022-09-29T12:08:30.550Z,3.08
2022-09-29T12:12:11.830Z,2.70
2022-09-29T12:18:24.090Z,2.63
2022-09-29T12:21:15.495Z,2.30
2022-09-29T12:26:54.438Z,2.00
2022-09-29T12:29:46.643Z,2.00
2022-09-29T12:32:38.684Z,2.10
2022-09-29T12:36:05.673Z,1.70
2022-09-29T12:38:52.477Z,1.70
2022-09-29T12:41:44.641Z,1.80
2022-09-29T12:44:44.552Z,1.60
2022-09-29T12:48:00.032Z,1.98
2022-09-29T12:50:57.563Z,1.85
2022-09-29T12:54:16.682Z,1.67
2022-09-29T12:57:05.190Z,1.98
2022-09-29T13:00:01.980Z,1.60
2022-09-29T13:03:14.449Z,1.70
2022-09-29T13:06:19.449Z,1.50
2022-09-29T13:09:36.339Z,1.30
2022-09-29T13:12:45.873Z,1.65
2022-09-29T13:15:46.896Z,1.90
2022-09-29T13:18:41.903Z,1.50
2022-09-29T13:21:49.782Z,1.50
2022-09-29T13:24:56.872Z,1.73
2022-09-29T13:27:46.139Z,1.50
2022-09-29T13:30:37.014Z,1.23
2022-09-29T13:33:25.390Z,1.42
2022-09-29T13:36:37.602Z,1.15
2022-09-29T13:39:27.128Z,1.40
2022-09-29T13:42:45.496Z,1.25
2022-09-29T13:45:37.664Z,1.48
2022-09-29T13:48:32.724Z,1.55
2022-09-29T13:51:29.244Z,1.65
2022-09-29T13:54:36.155Z,1.63
2022-09-29T13:57:27.691Z,1.50
2022-09-29T14:00:20.198Z,1.70
2022-09-29T14:03:22.279Z,1.48
2022-09-29T14:09:27.033Z,1.63
2022-09-29T14:12:21.814Z,1.42
2022-09-29T14:15:09.538Z,1.50
2022-09-29T14:18:03.812Z,1.40
2022-09-29T14:21:05.107Z,1.25
2022-09-29T14:23:52.829Z,1.60
2022-09-29T14:26:54.403Z,1.30
2022-09-29T14:29:46.316Z,1.20
2022-09-29T14:32:56.718Z,2.58
2022-09-29T14:35:49.785Z,1.73
2022-09-29T14:39:02.651Z,1.65
2022-09-29T14:41:54.630Z,1.20
2022-09-29T14:44:59.584Z,0.90
2022-09-29T14:48:29.748Z,1.10
2022-09-29T14:51:46.620Z,1.30
2022-09-29T14:54:47.048Z,1.63
2022-09-29T14:57:48.258Z,1.35
2022-09-29T15:01:00.366Z,1.98
2022-09-29T15:03:50.244Z,1.30
2022-09-29T15:06:47.024Z,1.60
2022-09-29T15:09:37.005Z,1.42
2022-09-29T15:12:26.632Z,1.85
2022-09-29T15:15:34.794Z,1.45
2022-09-29T15:19:08.927Z,1.40
2022-09-29T15:22:42.362Z,1.55
2022-09-29T15:25:34.063Z,1.70
2022-09-29T15:28:36.157Z,1.55
2022-09-29T15:31:32.672Z,1.83
2022-09-29T15:34:22.085Z,1.45
2022-09-29T15:37:08.897Z,2.17
2022-09-29T15:40:02.408Z,1.70
2022-09-29T15:45:35.090Z,1.25
2022-09-29T15:48:21.485Z,1.50
2022-09-29T15:51:17.545Z,1.58
2022-09-29T15:54:05.595Z,1.60
2022-09-29T15:57:10.493Z,1.65
2022-09-29T15:59:56.561Z,1.70
2022-09-29T16:02:43.957Z,1.58
2022-09-29T16:05:32.856Z,1.58
2022-09-29T16:08:24.742Z,1.70
2022-09-29T16:11:23.001Z,1.48
2022-09-29T16:14:27.796Z,1.30
2022-09-29T16:17:14.425Z,1.70
2022-09-29T16:20:01.261Z,1.73
2022-09-29T16:22:49.141Z,1.95
2022-09-29T16:25:35.102Z,1.83
2022-09-29T16:28:29.452Z,2.03
2022-09-29T16:31:23.903Z,1.92
2022-09-29T16:34:22.574Z,1.73
2022-09-29T16:37:18.637Z,1.77
2022-09-29T16:40:05.279Z,1.85
2022-09-29T16:42:53.425Z,1.60
2022-09-29T16:45:41.061Z,2.00
2022-09-29T16:48:30.050Z,1.60
2022-09-29T16:51:38.192Z,1.83
2022-09-29T16:54:29.692Z,1.58
2022-09-29T16:57:30.523Z,2.03
2022-09-29T17:00:18.077Z,1.92
2022-09-29T17:03:05.597Z,2.20
2022-09-29T17:05:52.592Z,1.85
2022-09-29T17:08:38.748Z,1.70
2022-09-29T17:11:25.590Z,1.70
2022-09-29T17:14:13.606Z,1.83
2022-09-29T17:17:00.126Z,1.77
2022-09-29T17:19:57.355Z,1.70
2022-09-29T17:22:49.193Z,2.05
2022-09-29T17:25:37.122Z,1.77
2022-09-29T17:28:24.925Z,1.83
2022-09-29T17:31:12.972Z,3.38
2022-09-29T17:33:59.531Z,2.90
2022-09-29T17:36:45.860Z,2.75
2022-09-29T17:39:32.404Z,3.92
2022-09-29T17:42:18.833Z,5.95
2022-09-29T17:45:05.438Z,7.63
2022-09-29T17:47:52.375Z,8.25
2022-09-29T17:50:48.304Z,7.63
2022-09-29T17:53:34.206Z,3.83
2022-09-29T17:56:28.423Z,2.65
2022-09-29T17:59:14.385Z,2.42
2022-09-29T18:02:00.990Z,3.25
2022-09-29T18:04:49.361Z,2.45
2022-09-29T18:07:35.416Z,3.55
2022-09-29T18:10:35.706Z,4.15
2022-09-29T18:13:27.433Z,3.67
2022-09-29T18:16:16.751Z,4.55
2022-09-29T18:19:06.325Z,4.22
2022-09-29T18:21:52.419Z,3.38
2022-09-29T18:24:38.441Z,3.03
2022-09-29T18:27:25.161Z,3.28
2022-09-29T18:30:18.579Z,3.70
2022-09-29T18:33:04.528Z,4.30
2022-09-29T18:35:54.624Z,4.75
2022-09-29T18:38:40.443Z,4.30
2022-09-29T18:41:32.854Z,3.42
2022-09-29T18:44:30.367Z,3.10
2022-09-29T18:47:16.882Z,3.08
2022-09-29T18:50:03.568Z,3.40
2022-09-29T18:52:51.968Z,3.85
2022-09-29T18:55:38.180Z,4.45
2022-09-29T18:58:24.871Z,5.25
2022-09-29T19:01:17.727Z,4.90
2022-09-29T19:04:05.253Z,5.72
2022-09-29T19:06:53.308Z,6.03
2022-09-29T19:09:39.631Z,8.27
2022-09-29T19:12:29.785Z,7.28
2022-09-29T19:15:18.364Z,7.00
2022-09-29T19:18:09.123Z,6.85
2022-09-29T19:20:58.402Z,6.40
2022-09-29T19:23:46.744Z,6.10
2022-09-29T19:26:33.365Z,6.00
2022-09-29T19:29:20.671Z,5.78
2022-09-29T19:32:06.857Z,5.63
2022-09-29T19:34:54.982Z,6.05
2022-09-29T19:37:42.538Z,10.15
2022-09-29T19:40:36.721Z,7.75
2022-09-29T19:43:23.100Z,5.80
2022-09-29T19:46:13.954Z,6.55
2022-09-29T19:49:00.088Z,7.10
2022-09-29T19:51:58.097Z,7.40
2022-09-29T19:54:43.937Z,7.70
2022-09-29T19:57:31.396Z,5.80
2022-09-29T20:00:21.494Z,6.20
2022-09-29T20:03:11.168Z,6.75
2022-09-29T20:06:06.323Z,7.38
2022-09-29T20:08:52.602Z,5.82
2022-09-29T20:11:40.432Z,5.70
2022-09-29T20:14:28.039Z,4.70
2022-09-29T20:17:13.937Z,5.75
2022-09-29T20:20:01.792Z,5.35
2022-09-29T20:22:49.619Z,6.07
2022-09-29T20:25:35.453Z,6.13
2022-09-29T20:28:24.425Z,6.20
2022-09-29T20:31:10.443Z,5.93
2022-09-29T20:34:00.493Z,7.13
2022-09-29T20:36:50.836Z,6.43
2022-09-29T20:39:44.154Z,7.88
2022-09-29T20:42:32.617Z,6.50
2022-09-29T20:45:19.779Z,6.72
2022-09-29T20:48:05.594Z,7.13
2022-09-29T20:50:52.095Z,6.60
2022-09-29T20:53:41.365Z,7.25
2022-09-29T20:56:40.215Z,7.15
2022-09-29T20:59:26.257Z,6.95
2022-09-29T21:02:15.239Z,6.85
2022-09-29T21:05:07.571Z,8.15
2022-09-29T21:07:55.463Z,7.88
2022-09-29T21:10:42.465Z,7.72
2022-09-29T21:13:30.089Z,8.95
2022-09-29T21:16:15.982Z,7.82
2022-09-29T21:19:02.464Z,8.75
2022-09-29T21:21:48.850Z,8.15
2022-09-29T21:24:37.126Z,6.95
2022-09-29T21:27:23.381Z,7.10
2022-09-29T21:30:10.056Z,6.90
2022-09-29T21:32:59.400Z,6.43
2022-09-29T21:35:45.818Z,6.97
2022-09-29T21:38:37.362Z,7.47
2022-09-29T21:41:29.527Z,6.78
2022-09-29T21:47:07.696Z,8.02
2022-09-29T21:49:56.260Z,6.90
2022-09-29T21:52:43.679Z,7.20
2022-09-29T21:55:29.912Z,6.43
2022-09-29T21:58:16.051Z,7.40
2022-09-29T22:01:04.315Z,6.43
2022-09-29T22:03:57.409Z,6.63
2022-09-29T22:06:45.729Z,7.22
2022-09-29T22:09:32.017Z,6.97
2022-09-29T22:12:29.301Z,6.78
2022-09-29T22:15:23.188Z,6.70
2022-09-29T22:18:10.544Z,6.97
2022-09-29T22:21:01.440Z,8.13
2022-09-29T22:23:48.034Z,6.97
2022-09-29T22:26:34.375Z,6.32
2022-09-29T22:29:27.844Z,6.93
2022-09-29T22:32:14.862Z,7.43
2022-09-29T22:35:00.769Z,6.63
2022-09-29T22:37:47.702Z,7.45
2022-09-29T22:40:42.800Z,6.65
2022-09-29T22:43:30.435Z,6.40
2022-09-29T22:46:16.643Z,6.95
2022-09-29T22:49:03.394Z,6.97
2022-09-29T22:51:49.591Z,6.55
2022-09-29T22:54:35.475Z,7.50
2022-09-29T22:57:21.645Z,6.55
2022-09-29T23:00:08.985Z,6.22
2022-09-29T23:02:54.997Z,6.07
2022-09-29T23:05:41.745Z,5.68
2022-09-29T23:08:27.931Z,7.45
2022-09-29T23:11:17.674Z,6.70
2022-09-29T23:14:04.346Z,6.93
2022-09-29T23:16:53.749Z,6.25
2022-09-29T23:19:39.621Z,6.32
2022-09-29T23:22:26.615Z,6.65
2022-09-29T23:25:12.583Z,5.75
2022-09-29T23:27:58.675Z,6.43
2022-09-29T23:30:44.922Z,5.95
2022-09-29T23:33:31.478Z,6.68
2022-09-29T23:36:20.206Z,6.57
2022-09-29T23:39:15.605Z,5.85
2022-09-29T23:42:02.247Z,5.88
2022-09-29T23:44:48.409Z,6.20
2022-09-29T23:47:34.815Z,5.90
2022-09-29T23:50:20.719Z,5.57
2022-09-29T23:53:06.862Z,5.30
2022-09-29T23:55:52.611Z,5.10
2022-09-29T23:58:38.541Z,5.47
